Mentor, OH (44060)

5:36 AM EST on February 24, 2017 (GMT -0500)
Living Homes | | Change Station

Elev 623 ft 41.70 °N, 81.35 °W | Updated 19 seconds ago

Fog
Fog
44.2 °F
Feels Like 44 °F
N
0.0
Wind Variable Wind from South
Gusts 0.0 mph

Today
High -- | Low -- °F
--% Chance of Precip.
Yesterday
High -- | Low -- °F
Precip. -- in
Pressure 29.72 in
Visibility 3.0 miles
Clouds Scattered Clouds 4900 ft
Mostly Cloudy 7500 ft
Overcast 9000 ft
Windchill 44 °F
Dew Point 41 °F
Humidity 89%
Rainfall 0.00 in
Snow Depth Not available.
7:07 AM 6:10 PM
Waning Crescent, 5% visible
METAR KBKL 240953Z 06003KT 3SM BR SCT049 BKN075 OVC090 05/04 A2971 RMK AO2 RAB11E31 SLP062 P0001 T00500039
Pressure 29.72 in
Visibility 3.0 miles
Clouds Scattered Clouds 4900 ft
Mostly Cloudy 7500 ft
Overcast 9000 ft
Windchill 44 °F
Dew Point 41 °F
Humidity 89%
Rainfall 0.00 in
Snow Depth Not available.
7:07 AM 6:10 PM
Waning Crescent, 5% visible
METAR KBKL 240953Z 06003KT 3SM BR SCT049 BKN075 OVC090 05/04 A2971 RMK AO2 RAB11E31 SLP062 P0001 T00500039

Get Your Daily Forecast Email!

Thanks for signing up!

Be on the lookout for a verification email in your inbox.

You'll start receiving the daily forecast at 8 AM.

×

10-Day Weather Forecast

Almanac

Astronomy

Feb. 24, 2017 Rise Set
Actual Time
Civil Twilight
Nautical Twilight
Astronomical Twilight
Moon
Length of Visible Light
Length of Day
Tomorrow will be .
, % of the Moon is Illuminated

Today's Extremes

State Highs State Lows

Community

WunderPhotos

Upload Photos

1,962,540 photos uploaded!

WunderBlog® & News

Nearby

Air Quality

  Air Quality AQ Index Pollutant
Not available.

Snow Depth

Station Depth Elevation

Earthquake Activity

City Distance Mag. Time & Date
Minimum magnitude displayed is 2.5.

Coastal Water Temperatures

Place Temperature

Stations

Nearby Weather Stations

Station Location Temp. Windchill Dew Point Humidity Wind Precip. Elev Updated Type
                   

Watches & Warnings

There are currently no watches in effect.